sensor_id;sensor_type;location;lat;lon;timestamp;P1;durP1;ratioP1;P2;durP2;ratioP2
27794;SDS011;15176;50.844;4.412;2023-03-24T00:01:54;5.32;;;2.17;;
27794;SDS011;15176;50.844;4.412;2023-03-24T00:04:23;4.57;;;1.73;;
27794;SDS011;15176;50.844;4.412;2023-03-24T00:06:49;6.55;;;1.67;;
27794;SDS011;15176;50.844;4.412;2023-03-24T00:09:16;5.45;;;2.13;;
27794;SDS011;15176;50.844;4.412;2023-03-24T00:11:42;4.90;;;1.85;;
27794;SDS011;15176;50.844;4.412;2023-03-24T00:14:08;3.88;;;2.10;;
27794;SDS011;15176;50.844;4.412;2023-03-24T00:16:45;5.30;;;1.90;;
27794;SDS011;15176;50.844;4.412;2023-03-24T00:19:11;6.28;;;2.10;;
27794;SDS011;15176;50.844;4.412;2023-03-24T00:21:39;5.53;;;1.83;;
27794;SDS011;15176;50.844;4.412;2023-03-24T00:24:06;4.72;;;1.98;;
27794;SDS011;15176;50.844;4.412;2023-03-24T00:26:33;4.95;;;2.00;;
27794;SDS011;15176;50.844;4.412;2023-03-24T00:29:04;6.97;;;2.25;;
27794;SDS011;15176;50.844;4.412;2023-03-24T00:31:32;5.45;;;1.88;;
27794;SDS011;15176;50.844;4.412;2023-03-24T00:33:58;6.05;;;1.98;;
27794;SDS011;15176;50.844;4.412;2023-03-24T00:36:26;4.88;;;2.00;;
27794;SDS011;15176;50.844;4.412;2023-03-24T00:38:53;4.13;;;1.83;;
27794;SDS011;15176;50.844;4.412;2023-03-24T00:41:20;4.70;;;2.08;;
27794;SDS011;15176;50.844;4.412;2023-03-24T00:43:52;4.47;;;1.90;;
27794;SDS011;15176;50.844;4.412;2023-03-24T00:46:24;4.13;;;1.80;;
27794;SDS011;15176;50.844;4.412;2023-03-24T00:48:58;5.15;;;2.20;;
27794;SDS011;15176;50.844;4.412;2023-03-24T00:51:33;5.78;;;2.00;;
27794;SDS011;15176;50.844;4.412;2023-03-24T00:54:01;7.20;;;2.00;;
27794;SDS011;15176;50.844;4.412;2023-03-24T00:56:28;5.60;;;2.17;;
27794;SDS011;15176;50.844;4.412;2023-03-24T00:58:56;3.80;;;1.88;;
27794;SDS011;15176;50.844;4.412;2023-03-24T01:01:25;5.38;;;1.58;;
27794;SDS011;15176;50.844;4.412;2023-03-24T01:03:53;5.28;;;1.80;;
27794;SDS011;15176;50.844;4.412;2023-03-24T01:06:22;4.00;;;2.05;;
27794;SDS011;15176;50.844;4.412;2023-03-24T01:08:48;4.78;;;1.60;;
27794;SDS011;15176;50.844;4.412;2023-03-24T01:11:24;4.32;;;1.90;;
27794;SDS011;15176;50.844;4.412;2023-03-24T01:13:51;5.05;;;1.92;;
27794;SDS011;15176;50.844;4.412;2023-03-24T01:16:18;5.30;;;2.35;;
27794;SDS011;15176;50.844;4.412;2023-03-24T01:18:44;3.90;;;1.60;;
27794;SDS011;15176;50.844;4.412;2023-03-24T01:21:10;4.32;;;1.88;;
27794;SDS011;15176;50.844;4.412;2023-03-24T01:23:37;3.78;;;1.80;;
27794;SDS011;15176;50.844;4.412;2023-03-24T01:26:06;3.88;;;1.85;;
27794;SDS011;15176;50.844;4.412;2023-03-24T01:28:33;6.95;;;2.05;;
27794;SDS011;15176;50.844;4.412;2023-03-24T01:31:05;5.00;;;2.10;;
27794;SDS011;15176;50.844;4.412;2023-03-24T01:33:34;5.88;;;2.10;;
27794;SDS011;15176;50.844;4.412;2023-03-24T01:36:03;3.90;;;1.83;;
27794;SDS011;15176;50.844;4.412;2023-03-24T01:38:31;3.33;;;1.88;;
27794;SDS011;15176;50.844;4.412;2023-03-24T01:40:58;5.35;;;2.00;;
27794;SDS011;15176;50.844;4.412;2023-03-24T01:43:30;4.85;;;2.08;;
27794;SDS011;15176;50.844;4.412;2023-03-24T01:46:17;5.72;;;1.98;;
27794;SDS011;15176;50.844;4.412;2023-03-24T01:51:31;5.25;;;2.10;;
27794;SDS011;15176;50.844;4.412;2023-03-24T01:54:02;4.93;;;2.42;;
27794;SDS011;15176;50.844;4.412;2023-03-24T01:56:33;5.82;;;2.67;;
27794;SDS011;15176;50.844;4.412;2023-03-24T01:59:03;4.93;;;2.10;;
27794;SDS011;15176;50.844;4.412;2023-03-24T02:01:33;5.10;;;2.50;;
27794;SDS011;15176;50.844;4.412;2023-03-24T02:04:00;6.28;;;2.58;;
27794;SDS011;15176;50.844;4.412;2023-03-24T02:06:29;6.43;;;2.60;;
27794;SDS011;15176;50.844;4.412;2023-03-24T02:08:57;7.05;;;2.05;;
27794;SDS011;15176;50.844;4.412;2023-03-24T02:11:26;6.43;;;1.98;;
27794;SDS011;15176;50.844;4.412;2023-03-24T02:13:54;7.30;;;2.40;;
27794;SDS011;15176;50.844;4.412;2023-03-24T02:19:14;4.00;;;2.00;;
27794;SDS011;15176;50.844;4.412;2023-03-24T02:47:00;2.58;;;0.80;;
27794;SDS011;15176;50.844;4.412;2023-03-24T02:57:41;4.30;;;0.80;;
27794;SDS011;15176;50.844;4.412;2023-03-24T03:00:14;5.45;;;0.90;;
27794;SDS011;15176;50.844;4.412;2023-03-24T03:02:49;5.63;;;0.93;;
27794;SDS011;15176;50.844;4.412;2023-03-24T03:05:22;3.72;;;0.90;;
27794;SDS011;15176;50.844;4.412;2023-03-24T03:07:54;3.13;;;0.70;;
27794;SDS011;15176;50.844;4.412;2023-03-24T03:10:41;3.33;;;0.80;;
27794;SDS011;15176;50.844;4.412;2023-03-24T03:13:12;4.38;;;0.80;;
27794;SDS011;15176;50.844;4.412;2023-03-24T03:15:47;2.75;;;0.90;;
27794;SDS011;15176;50.844;4.412;2023-03-24T03:18:18;5.05;;;1.08;;
27794;SDS011;15176;50.844;4.412;2023-03-24T03:21:05;5.97;;;1.23;;
27794;SDS011;15176;50.844;4.412;2023-03-24T03:23:37;3.92;;;0.90;;
27794;SDS011;15176;50.844;4.412;2023-03-24T03:26:11;4.68;;;1.17;;
27794;SDS011;15176;50.844;4.412;2023-03-24T03:28:41;6.57;;;0.85;;
27794;SDS011;15176;50.844;4.412;2023-03-24T03:31:13;5.03;;;1.10;;
27794;SDS011;15176;50.844;4.412;2023-03-24T03:33:48;4.55;;;1.00;;
27794;SDS011;15176;50.844;4.412;2023-03-24T03:36:24;7.47;;;1.50;;
27794;SDS011;15176;50.844;4.412;2023-03-24T03:39:29;4.85;;;1.00;;
27794;SDS011;15176;50.844;4.412;2023-03-24T03:41:58;7.97;;;1.00;;
27794;SDS011;15176;50.844;4.412;2023-03-24T03:44:24;8.52;;;1.38;;
27794;SDS011;15176;50.844;4.412;2023-03-24T03:46:50;8.55;;;1.45;;
27794;SDS011;15176;50.844;4.412;2023-03-24T03:49:16;7.80;;;1.40;;
27794;SDS011;15176;50.844;4.412;2023-03-24T03:51:42;10.98;;;1.70;;
27794;SDS011;15176;50.844;4.412;2023-03-24T03:54:09;6.25;;;1.10;;
27794;SDS011;15176;50.844;4.412;2023-03-24T03:56:44;9.00;;;1.30;;
27794;SDS011;15176;50.844;4.412;2023-03-24T03:59:22;8.25;;;1.55;;
27794;SDS011;15176;50.844;4.412;2023-03-24T04:01:51;7.50;;;1.48;;
27794;SDS011;15176;50.844;4.412;2023-03-24T04:04:37;9.13;;;1.42;;
27794;SDS011;15176;50.844;4.412;2023-03-24T04:21:08;11.02;;;1.48;;
27794;SDS011;15176;50.844;4.412;2023-03-24T04:37:04;13.27;;;2.00;;
27794;SDS011;15176;50.844;4.412;2023-03-24T04:39:46;15.48;;;2.28;;
27794;SDS011;15176;50.844;4.412;2023-03-24T04:42:18;10.93;;;1.63;;
27794;SDS011;15176;50.844;4.412;2023-03-24T04:44:49;12.45;;;2.33;;
27794;SDS011;15176;50.844;4.412;2023-03-24T04:47:16;11.30;;;2.20;;
27794;SDS011;15176;50.844;4.412;2023-03-24T04:49:58;16.52;;;2.42;;
27794;SDS011;15176;50.844;4.412;2023-03-24T04:52:30;11.63;;;2.35;;
27794;SDS011;15176;50.844;4.412;2023-03-24T04:54:55;19.63;;;2.33;;
27794;SDS011;15176;50.844;4.412;2023-03-24T04:57:22;13.50;;;2.40;;
27794;SDS011;15176;50.844;4.412;2023-03-24T04:59:47;13.30;;;2.40;;
27794;SDS011;15176;50.844;4.412;2023-03-24T05:02:13;23.38;;;3.13;;
27794;SDS011;15176;50.844;4.412;2023-03-24T05:04:39;7.47;;;2.13;;
27794;SDS011;15176;50.844;4.412;2023-03-24T05:07:05;12.52;;;2.55;;
27794;SDS011;15176;50.844;4.412;2023-03-24T05:09:31;15.80;;;2.58;;
27794;SDS011;15176;50.844;4.412;2023-03-24T05:11:57;10.43;;;2.28;;
27794;SDS011;15176;50.844;4.412;2023-03-24T05:14:23;14.30;;;2.28;;
27794;SDS011;15176;50.844;4.412;2023-03-24T05:16:49;13.10;;;2.72;;
27794;SDS011;15176;50.844;4.412;2023-03-24T05:19:15;13.73;;;2.85;;
27794;SDS011;15176;50.844;4.412;2023-03-24T05:21:40;13.52;;;2.70;;
27794;SDS011;15176;50.844;4.412;2023-03-24T05:24:06;13.45;;;2.50;;
27794;SDS011;15176;50.844;4.412;2023-03-24T05:26:32;16.17;;;2.80;;
27794;SDS011;15176;50.844;4.412;2023-03-24T05:28:58;16.10;;;2.50;;
27794;SDS011;15176;50.844;4.412;2023-03-24T05:31:25;12.40;;;2.17;;
27794;SDS011;15176;50.844;4.412;2023-03-24T05:33:50;14.00;;;2.10;;
27794;SDS011;15176;50.844;4.412;2023-03-24T05:36:16;16.30;;;2.40;;
27794;SDS011;15176;50.844;4.412;2023-03-24T05:38:49;9.18;;;2.35;;
27794;SDS011;15176;50.844;4.412;2023-03-24T05:41:16;15.02;;;2.25;;
27794;SDS011;15176;50.844;4.412;2023-03-24T05:43:41;12.45;;;2.17;;
27794;SDS011;15176;50.844;4.412;2023-03-24T05:46:07;14.27;;;3.25;;
27794;SDS011;15176;50.844;4.412;2023-03-24T05:48:33;14.63;;;2.60;;
27794;SDS011;15176;50.844;4.412;2023-03-24T05:50:58;13.85;;;2.50;;
27794;SDS011;15176;50.844;4.412;2023-03-24T05:53:24;16.77;;;2.22;;
27794;SDS011;15176;50.844;4.412;2023-03-24T05:55:50;14.73;;;2.45;;
27794;SDS011;15176;50.844;4.412;2023-03-24T05:58:17;16.77;;;2.25;;
27794;SDS011;15176;50.844;4.412;2023-03-24T06:00:45;10.23;;;2.05;;
27794;SDS011;15176;50.844;4.412;2023-03-24T06:03:11;14.52;;;2.50;;
27794;SDS011;15176;50.844;4.412;2023-03-24T06:05:38;16.25;;;2.10;;
27794;SDS011;15176;50.844;4.412;2023-03-24T06:08:03;8.73;;;1.67;;
27794;SDS011;15176;50.844;4.412;2023-03-24T06:10:29;15.35;;;1.80;;
27794;SDS011;15176;50.844;4.412;2023-03-24T06:13:02;19.02;;;2.35;;
27794;SDS011;15176;50.844;4.412;2023-03-24T06:15:29;13.85;;;2.13;;
27794;SDS011;15176;50.844;4.412;2023-03-24T06:17:55;15.48;;;2.00;;
27794;SDS011;15176;50.844;4.412;2023-03-24T06:20:20;10.52;;;2.05;;
27794;SDS011;15176;50.844;4.412;2023-03-24T06:22:46;12.50;;;2.33;;
27794;SDS011;15176;50.844;4.412;2023-03-24T06:25:14;14.48;;;2.30;;
27794;SDS011;15176;50.844;4.412;2023-03-24T06:27:42;12.55;;;2.20;;
27794;SDS011;15176;50.844;4.412;2023-03-24T06:30:15;18.92;;;2.42;;
27794;SDS011;15176;50.844;4.412;2023-03-24T06:32:49;11.43;;;2.47;;
27794;SDS011;15176;50.844;4.412;2023-03-24T06:35:15;13.90;;;2.38;;
27794;SDS011;15176;50.844;4.412;2023-03-24T06:37:41;14.70;;;2.47;;
27794;SDS011;15176;50.844;4.412;2023-03-24T06:40:14;14.27;;;2.03;;
27794;SDS011;15176;50.844;4.412;2023-03-24T06:42:41;14.95;;;2.40;;
27794;SDS011;15176;50.844;4.412;2023-03-24T06:45:07;15.90;;;2.35;;
27794;SDS011;15176;50.844;4.412;2023-03-24T06:47:36;13.52;;;2.40;;
27794;SDS011;15176;50.844;4.412;2023-03-24T06:50:02;13.38;;;2.10;;
27794;SDS011;15176;50.844;4.412;2023-03-24T06:52:29;12.05;;;2.70;;
27794;SDS011;15176;50.844;4.412;2023-03-24T06:54:55;14.45;;;2.20;;
27794;SDS011;15176;50.844;4.412;2023-03-24T06:57:22;11.55;;;1.90;;
27794;SDS011;15176;50.844;4.412;2023-03-24T06:59:47;16.17;;;2.70;;
27794;SDS011;15176;50.844;4.412;2023-03-24T07:02:13;14.13;;;2.47;;
27794;SDS011;15176;50.844;4.412;2023-03-24T07:04:40;18.92;;;2.10;;
27794;SDS011;15176;50.844;4.412;2023-03-24T07:07:06;10.90;;;2.10;;
27794;SDS011;15176;50.844;4.412;2023-03-24T07:09:32;12.75;;;1.95;;
27794;SDS011;15176;50.844;4.412;2023-03-24T07:11:58;12.43;;;2.30;;
27794;SDS011;15176;50.844;4.412;2023-03-24T07:14:24;13.25;;;2.00;;
27794;SDS011;15176;50.844;4.412;2023-03-24T07:16:57;14.93;;;2.47;;
27794;SDS011;15176;50.844;4.412;2023-03-24T07:19:26;20.83;;;2.60;;
27794;SDS011;15176;50.844;4.412;2023-03-24T07:21:52;13.50;;;2.40;;
27794;SDS011;15176;50.844;4.412;2023-03-24T07:24:17;12.65;;;2.22;;
27794;SDS011;15176;50.844;4.412;2023-03-24T07:26:43;15.80;;;2.53;;
27794;SDS011;15176;50.844;4.412;2023-03-24T07:29:09;10.82;;;2.10;;
27794;SDS011;15176;50.844;4.412;2023-03-24T07:31:36;12.18;;;2.00;;
27794;SDS011;15176;50.844;4.412;2023-03-24T07:34:04;13.13;;;2.00;;
27794;SDS011;15176;50.844;4.412;2023-03-24T07:36:37;8.30;;;2.10;;
27794;SDS011;15176;50.844;4.412;2023-03-24T07:39:02;11.52;;;2.60;;
27794;SDS011;15176;50.844;4.412;2023-03-24T07:41:29;12.98;;;1.98;;
27794;SDS011;15176;50.844;4.412;2023-03-24T07:43:54;10.07;;;1.90;;
27794;SDS011;15176;50.844;4.412;2023-03-24T07:46:20;13.88;;;2.30;;
27794;SDS011;15176;50.844;4.412;2023-03-24T07:48:47;14.90;;;2.15;;
27794;SDS011;15176;50.844;4.412;2023-03-24T07:51:13;17.73;;;2.55;;
27794;SDS011;15176;50.844;4.412;2023-03-24T07:53:39;11.57;;;2.03;;
27794;SDS011;15176;50.844;4.412;2023-03-24T07:56:04;12.98;;;2.20;;
27794;SDS011;15176;50.844;4.412;2023-03-24T07:58:32;16.80;;;2.20;;
27794;SDS011;15176;50.844;4.412;2023-03-24T08:01:07;12.05;;;2.25;;
27794;SDS011;15176;50.844;4.412;2023-03-24T08:03:36;10.50;;;2.20;;
27794;SDS011;15176;50.844;4.412;2023-03-24T08:06:05;10.45;;;2.65;;
27794;SDS011;15176;50.844;4.412;2023-03-24T08:08:38;15.02;;;2.10;;
27794;SDS011;15176;50.844;4.412;2023-03-24T08:11:03;10.23;;;2.08;;
27794;SDS011;15176;50.844;4.412;2023-03-24T08:13:30;12.50;;;2.42;;
27794;SDS011;15176;50.844;4.412;2023-03-24T08:15:57;10.95;;;2.25;;
27794;SDS011;15176;50.844;4.412;2023-03-24T08:18:23;8.48;;;1.92;;
27794;SDS011;15176;50.844;4.412;2023-03-24T08:20:49;9.60;;;2.70;;
27794;SDS011;15176;50.844;4.412;2023-03-24T08:23:20;13.38;;;2.70;;
27794;SDS011;15176;50.844;4.412;2023-03-24T08:25:47;13.48;;;1.98;;
27794;SDS011;15176;50.844;4.412;2023-03-24T08:28:13;10.70;;;2.35;;
27794;SDS011;15176;50.844;4.412;2023-03-24T08:30:47;13.75;;;2.08;;
27794;SDS011;15176;50.844;4.412;2023-03-24T08:33:13;13.38;;;2.40;;
27794;SDS011;15176;50.844;4.412;2023-03-24T08:35:40;15.30;;;2.35;;
27794;SDS011;15176;50.844;4.412;2023-03-24T08:38:07;11.98;;;2.00;;
27794;SDS011;15176;50.844;4.412;2023-03-24T08:40:34;9.25;;;1.88;;
27794;SDS011;15176;50.844;4.412;2023-03-24T08:43:03;9.30;;;2.50;;
27794;SDS011;15176;50.844;4.412;2023-03-24T08:45:32;9.70;;;2.45;;
27794;SDS011;15176;50.844;4.412;2023-03-24T08:47:59;12.10;;;3.05;;
27794;SDS011;15176;50.844;4.412;2023-03-24T08:50:28;16.48;;;3.78;;
27794;SDS011;15176;50.844;4.412;2023-03-24T08:52:58;11.40;;;2.20;;
27794;SDS011;15176;50.844;4.412;2023-03-24T08:55:25;10.82;;;2.22;;
27794;SDS011;15176;50.844;4.412;2023-03-24T08:57:51;8.70;;;1.90;;
27794;SDS011;15176;50.844;4.412;2023-03-24T09:00:18;9.77;;;2.00;;
27794;SDS011;15176;50.844;4.412;2023-03-24T09:02:51;12.10;;;2.33;;
27794;SDS011;15176;50.844;4.412;2023-03-24T09:05:25;9.40;;;2.03;;
27794;SDS011;15176;50.844;4.412;2023-03-24T09:07:58;13.32;;;2.40;;
27794;SDS011;15176;50.844;4.412;2023-03-24T09:10:25;11.43;;;2.22;;
27794;SDS011;15176;50.844;4.412;2023-03-24T09:12:51;14.73;;;2.45;;
27794;SDS011;15176;50.844;4.412;2023-03-24T09:15:17;14.25;;;2.75;;
27794;SDS011;15176;50.844;4.412;2023-03-24T09:17:43;14.10;;;2.97;;
27794;SDS011;15176;50.844;4.412;2023-03-24T09:20:11;12.88;;;2.05;;
27794;SDS011;15176;50.844;4.412;2023-03-24T09:22:41;11.15;;;1.95;;
27794;SDS011;15176;50.844;4.412;2023-03-24T09:25:10;9.40;;;1.88;;
27794;SDS011;15176;50.844;4.412;2023-03-24T09:27:38;11.43;;;2.10;;
27794;SDS011;15176;50.844;4.412;2023-03-24T09:30:04;12.85;;;2.17;;
27794;SDS011;15176;50.844;4.412;2023-03-24T09:32:31;9.50;;;2.20;;
27794;SDS011;15176;50.844;4.412;2023-03-24T09:34:57;10.70;;;2.75;;
27794;SDS011;15176;50.844;4.412;2023-03-24T09:37:23;10.10;;;2.55;;
27794;SDS011;15176;50.844;4.412;2023-03-24T09:39:49;10.80;;;2.30;;
27794;SDS011;15176;50.844;4.412;2023-03-24T09:42:22;9.80;;;2.10;;
27794;SDS011;15176;50.844;4.412;2023-03-24T09:44:51;14.73;;;2.13;;
27794;SDS011;15176;50.844;4.412;2023-03-24T09:47:32;12.88;;;2.97;;
27794;SDS011;15176;50.844;4.412;2023-03-24T09:50:20;8.90;;;2.20;;
27794;SDS011;15176;50.844;4.412;2023-03-24T09:52:58;9.65;;;1.65;;
27794;SDS011;15176;50.844;4.412;2023-03-24T09:55:38;10.82;;;1.98;;
27794;SDS011;15176;50.844;4.412;2023-03-24T09:58:05;12.82;;;2.72;;
27794;SDS011;15176;50.844;4.412;2023-03-24T10:00:32;13.80;;;3.08;;
27794;SDS011;15176;50.844;4.412;2023-03-24T10:02:59;12.93;;;3.20;;
27794;SDS011;15176;50.844;4.412;2023-03-24T10:05:36;10.63;;;1.80;;
27794;SDS011;15176;50.844;4.412;2023-03-24T10:11:20;9.73;;;2.10;;
27794;SDS011;15176;50.844;4.412;2023-03-24T10:19:41;12.45;;;1.95;;
27794;SDS011;15176;50.844;4.412;2023-03-24T10:22:35;11.30;;;2.20;;
27794;SDS011;15176;50.844;4.412;2023-03-24T10:27:48;9.85;;;2.05;;
27794;SDS011;15176;50.844;4.412;2023-03-24T10:30:16;11.75;;;1.77;;
27794;SDS011;15176;50.844;4.412;2023-03-24T10:32:49;11.00;;;1.92;;
27794;SDS011;15176;50.844;4.412;2023-03-24T10:35:20;11.25;;;1.90;;
27794;SDS011;15176;50.844;4.412;2023-03-24T10:38:12;10.63;;;1.88;;
27794;SDS011;15176;50.844;4.412;2023-03-24T10:40:45;9.13;;;1.58;;
27794;SDS011;15176;50.844;4.412;2023-03-24T10:43:12;10.10;;;2.05;;
27794;SDS011;15176;50.844;4.412;2023-03-24T10:45:40;12.10;;;2.15;;
27794;SDS011;15176;50.844;4.412;2023-03-24T10:51:11;16.88;;;2.50;;
27794;SDS011;15176;50.844;4.412;2023-03-24T10:53:44;7.07;;;1.88;;
27794;SDS011;15176;50.844;4.412;2023-03-24T10:56:15;8.15;;;1.55;;
27794;SDS011;15176;50.844;4.412;2023-03-24T10:58:50;8.93;;;1.95;;
27794;SDS011;15176;50.844;4.412;2023-03-24T11:01:23;9.98;;;2.00;;
27794;SDS011;15176;50.844;4.412;2023-03-24T11:03:59;12.23;;;2.28;;
27794;SDS011;15176;50.844;4.412;2023-03-24T11:06:36;13.27;;;2.25;;
27794;SDS011;15176;50.844;4.412;2023-03-24T11:09:18;9.60;;;1.95;;
27794;SDS011;15176;50.844;4.412;2023-03-24T11:12:23;11.98;;;2.08;;
27794;SDS011;15176;50.844;4.412;2023-03-24T11:14:50;11.93;;;2.20;;
27794;SDS011;15176;50.844;4.412;2023-03-24T11:17:21;10.55;;;2.10;;
27794;SDS011;15176;50.844;4.412;2023-03-24T11:19:52;15.15;;;2.45;;
27794;SDS011;15176;50.844;4.412;2023-03-24T11:22:19;11.95;;;2.20;;
27794;SDS011;15176;50.844;4.412;2023-03-24T11:24:49;13.93;;;2.20;;
27794;SDS011;15176;50.844;4.412;2023-03-24T11:27:19;11.20;;;2.00;;
27794;SDS011;15176;50.844;4.412;2023-03-24T11:29:49;10.93;;;1.90;;
27794;SDS011;15176;50.844;4.412;2023-03-24T11:32:23;11.32;;;2.03;;
27794;SDS011;15176;50.844;4.412;2023-03-24T11:35:00;8.68;;;1.90;;
27794;SDS011;15176;50.844;4.412;2023-03-24T11:37:30;8.48;;;1.80;;
27794;SDS011;15176;50.844;4.412;2023-03-24T11:42:46;16.40;;;2.42;;
27794;SDS011;15176;50.844;4.412;2023-03-24T11:45:28;12.35;;;1.73;;
27794;SDS011;15176;50.844;4.412;2023-03-24T11:48:03;9.82;;;1.65;;
27794;SDS011;15176;50.844;4.412;2023-03-24T11:50:54;12.13;;;1.98;;
27794;SDS011;15176;50.844;4.412;2023-03-24T11:53:22;13.10;;;1.85;;
27794;SDS011;15176;50.844;4.412;2023-03-24T12:01:03;11.85;;;2.33;;
27794;SDS011;15176;50.844;4.412;2023-03-24T12:08:42;10.68;;;1.60;;
27794;SDS011;15176;50.844;4.412;2023-03-24T12:13:53;11.95;;;2.03;;
27794;SDS011;15176;50.844;4.412;2023-03-24T12:24:47;10.75;;;2.08;;
27794;SDS011;15176;50.844;4.412;2023-03-24T12:27:48;9.05;;;2.03;;
27794;SDS011;15176;50.844;4.412;2023-03-24T12:30:29;12.82;;;2.28;;
27794;SDS011;15176;50.844;4.412;2023-03-24T12:33:02;14.10;;;2.05;;
27794;SDS011;15176;50.844;4.412;2023-03-24T12:38:48;9.50;;;1.88;;
27794;SDS011;15176;50.844;4.412;2023-03-24T12:44:21;13.63;;;2.22;;
27794;SDS011;15176;50.844;4.412;2023-03-24T12:47:15;16.60;;;2.30;;
27794;SDS011;15176;50.844;4.412;2023-03-24T12:49:48;9.80;;;1.30;;
27794;SDS011;15176;50.844;4.412;2023-03-24T12:52:40;8.55;;;1.65;;
27794;SDS011;15176;50.844;4.412;2023-03-24T12:55:24;8.68;;;1.70;;
27794;SDS011;15176;50.844;4.412;2023-03-24T13:04:28;5.55;;;1.40;;
27794;SDS011;15176;50.844;4.412;2023-03-24T13:06:44;8.85;;;1.70;;
27794;SDS011;15176;50.844;4.412;2023-03-24T13:09:24;8.75;;;1.70;;
27794;SDS011;15176;50.844;4.412;2023-03-24T13:12:17;7.55;;;1.77;;
27794;SDS011;15176;50.844;4.412;2023-03-24T13:17:38;11.75;;;1.92;;
27794;SDS011;15176;50.844;4.412;2023-03-24T13:32:09;7.57;;;1.20;;
27794;SDS011;15176;50.844;4.412;2023-03-24T13:37:35;7.93;;;1.30;;
27794;SDS011;15176;50.844;4.412;2023-03-24T13:40:08;7.10;;;1.45;;
27794;SDS011;15176;50.844;4.412;2023-03-24T13:42:44;8.27;;;1.63;;
27794;SDS011;15176;50.844;4.412;2023-03-24T13:45:44;6.32;;;1.67;;
27794;SDS011;15176;50.844;4.412;2023-03-24T13:48:34;6.47;;;1.33;;
27794;SDS011;15176;50.844;4.412;2023-03-24T13:54:06;9.27;;;1.60;;
27794;SDS011;15176;50.844;4.412;2023-03-24T13:56:51;10.60;;;1.70;;
27794;SDS011;15176;50.844;4.412;2023-03-24T14:02:42;8.60;;;1.67;;
27794;SDS011;15176;50.844;4.412;2023-03-24T14:05:39;9.32;;;1.50;;
27794;SDS011;15176;50.844;4.412;2023-03-24T14:10:37;8.48;;;2.20;;
27794;SDS011;15176;50.844;4.412;2023-03-24T14:21:01;6.80;;;1.45;;
27794;SDS011;15176;50.844;4.412;2023-03-24T14:29:25;7.43;;;1.30;;
27794;SDS011;15176;50.844;4.412;2023-03-24T14:32:11;9.23;;;1.50;;
27794;SDS011;15176;50.844;4.412;2023-03-24T14:34:53;9.43;;;1.40;;
27794;SDS011;15176;50.844;4.412;2023-03-24T14:37:26;7.70;;;1.55;;
27794;SDS011;15176;50.844;4.412;2023-03-24T14:39:53;13.75;;;2.60;;
27794;SDS011;15176;50.844;4.412;2023-03-24T14:42:25;14.35;;;2.15;;
27794;SDS011;15176;50.844;4.412;2023-03-24T14:44:55;14.48;;;2.40;;
27794;SDS011;15176;50.844;4.412;2023-03-24T14:47:32;10.23;;;1.90;;
27794;SDS011;15176;50.844;4.412;2023-03-24T14:50:09;13.35;;;2.55;;
27794;SDS011;15176;50.844;4.412;2023-03-24T14:52:53;6.72;;;1.70;;
27794;SDS011;15176;50.844;4.412;2023-03-24T14:55:28;8.60;;;1.90;;
27794;SDS011;15176;50.844;4.412;2023-03-24T14:58:03;4.30;;;1.13;;
27794;SDS011;15176;50.844;4.412;2023-03-24T15:00:53;9.90;;;1.30;;
27794;SDS011;15176;50.844;4.412;2023-03-24T15:06:02;6.22;;;1.27;;
27794;SDS011;15176;50.844;4.412;2023-03-24T15:08:37;9.15;;;1.55;;
27794;SDS011;15176;50.844;4.412;2023-03-24T15:11:06;4.47;;;1.00;;
27794;SDS011;15176;50.844;4.412;2023-03-24T15:13:35;6.97;;;0.90;;
27794;SDS011;15176;50.844;4.412;2023-03-24T15:16:15;5.22;;;1.17;;
27794;SDS011;15176;50.844;4.412;2023-03-24T15:18:51;8.55;;;1.10;;
27794;SDS011;15176;50.844;4.412;2023-03-24T15:24:25;4.07;;;0.70;;
27794;SDS011;15176;50.844;4.412;2023-03-24T15:29:35;3.60;;;0.82;;
27794;SDS011;15176;50.844;4.412;2023-03-24T15:32:02;6.40;;;1.20;;
27794;SDS011;15176;50.844;4.412;2023-03-24T15:36:59;5.38;;;1.30;;
27794;SDS011;15176;50.844;4.412;2023-03-24T15:39:36;10.35;;;1.10;;
27794;SDS011;15176;50.844;4.412;2023-03-24T15:42:07;6.22;;;1.45;;
27794;SDS011;15176;50.844;4.412;2023-03-24T15:44:39;9.23;;;1.20;;
27794;SDS011;15176;50.844;4.412;2023-03-24T15:47:14;5.22;;;0.90;;
27794;SDS011;15176;50.844;4.412;2023-03-24T15:49:49;7.20;;;1.17;;
27794;SDS011;15176;50.844;4.412;2023-03-24T15:52:28;3.28;;;1.00;;
27794;SDS011;15176;50.844;4.412;2023-03-24T15:55:06;7.35;;;1.30;;
27794;SDS011;15176;50.844;4.412;2023-03-24T15:57:48;5.30;;;1.05;;
27794;SDS011;15176;50.844;4.412;2023-03-24T16:00:22;4.70;;;1.00;;
27794;SDS011;15176;50.844;4.412;2023-03-24T16:02:58;6.97;;;1.35;;
27794;SDS011;15176;50.844;4.412;2023-03-24T16:05:27;6.35;;;1.50;;
27794;SDS011;15176;50.844;4.412;2023-03-24T16:08:05;6.82;;;1.20;;
27794;SDS011;15176;50.844;4.412;2023-03-24T16:11:01;4.85;;;1.02;;
27794;SDS011;15176;50.844;4.412;2023-03-24T16:13:34;6.38;;;1.15;;
27794;SDS011;15176;50.844;4.412;2023-03-24T16:18:59;6.05;;;1.60;;
27794;SDS011;15176;50.844;4.412;2023-03-24T16:21:26;8.40;;;1.50;;
27794;SDS011;15176;50.844;4.412;2023-03-24T16:23:54;8.13;;;1.40;;
27794;SDS011;15176;50.844;4.412;2023-03-24T16:26:28;5.47;;;1.20;;
27794;SDS011;15176;50.844;4.412;2023-03-24T16:29:15;10.43;;;1.35;;
27794;SDS011;15176;50.844;4.412;2023-03-24T16:31:44;8.38;;;1.23;;
27794;SDS011;15176;50.844;4.412;2023-03-24T16:34:17;7.75;;;1.48;;
27794;SDS011;15176;50.844;4.412;2023-03-24T16:36:45;7.78;;;1.33;;
27794;SDS011;15176;50.844;4.412;2023-03-24T16:39:19;11.57;;;1.60;;
27794;SDS011;15176;50.844;4.412;2023-03-24T16:41:46;8.23;;;1.45;;
27794;SDS011;15176;50.844;4.412;2023-03-24T16:44:12;8.52;;;1.33;;
27794;SDS011;15176;50.844;4.412;2023-03-24T16:46:39;8.13;;;1.50;;
27794;SDS011;15176;50.844;4.412;2023-03-24T16:49:06;8.32;;;1.10;;
27794;SDS011;15176;50.844;4.412;2023-03-24T16:51:35;11.10;;;1.52;;
27794;SDS011;15176;50.844;4.412;2023-03-24T16:54:01;5.45;;;1.17;;
27794;SDS011;15176;50.844;4.412;2023-03-24T16:56:27;6.95;;;1.10;;
27794;SDS011;15176;50.844;4.412;2023-03-24T16:58:54;10.88;;;2.20;;
27794;SDS011;15176;50.844;4.412;2023-03-24T17:01:30;16.50;;;8.40;;
27794;SDS011;15176;50.844;4.412;2023-03-24T17:06:44;14.35;;;8.43;;
27794;SDS011;15176;50.844;4.412;2023-03-24T17:09:17;22.70;;;12.63;;
27794;SDS011;15176;50.844;4.412;2023-03-24T17:11:48;6.88;;;2.10;;
27794;SDS011;15176;50.844;4.412;2023-03-24T17:14:18;5.15;;;2.03;;
27794;SDS011;15176;50.844;4.412;2023-03-24T17:16:45;18.92;;;11.95;;
27794;SDS011;15176;50.844;4.412;2023-03-24T17:19:18;12.52;;;7.88;;
27794;SDS011;15176;50.844;4.412;2023-03-24T17:24:29;3.47;;;1.85;;
27794;SDS011;15176;50.844;4.412;2023-03-24T17:27:02;2.17;;;0.70;;
27794;SDS011;15176;50.844;4.412;2023-03-24T17:29:36;5.32;;;1.35;;
27794;SDS011;15176;50.844;4.412;2023-03-24T17:32:02;3.58;;;1.00;;
27794;SDS011;15176;50.844;4.412;2023-03-24T17:34:28;3.20;;;1.00;;
27794;SDS011;15176;50.844;4.412;2023-03-24T17:36:54;3.03;;;1.30;;
27794;SDS011;15176;50.844;4.412;2023-03-24T17:39:23;1.85;;;0.80;;
27794;SDS011;15176;50.844;4.412;2023-03-24T17:41:52;4.75;;;1.65;;
27794;SDS011;15176;50.844;4.412;2023-03-24T17:44:21;3.60;;;1.52;;
27794;SDS011;15176;50.844;4.412;2023-03-24T17:46:47;2.42;;;0.80;;
27794;SDS011;15176;50.844;4.412;2023-03-24T17:49:16;3.33;;;1.05;;
27794;SDS011;15176;50.844;4.412;2023-03-24T17:51:41;2.47;;;0.80;;
27794;SDS011;15176;50.844;4.412;2023-03-24T17:54:13;3.45;;;1.00;;
27794;SDS011;15176;50.844;4.412;2023-03-24T17:56:44;3.47;;;0.90;;
27794;SDS011;15176;50.844;4.412;2023-03-24T17:59:10;5.35;;;1.65;;
27794;SDS011;15176;50.844;4.412;2023-03-24T18:01:36;2.63;;;0.90;;